Time;durP1;ratioP1;P1;durP2;ratioP2;P2;SDS_P1;SDS_P2;PMS_P1;PMS_P2;Temp;Humidity;BMP_temperature;BMP_pressure;BME280_temperature;BME280_humidity;BME280_pressure;Samples;Min_cycle;Max_cycle;Signal;HPM_P1;HPM_P2
2022/05/08 00:02:12;;;;;;;34.83;8.70;;;;;;;;;;4982593;28;20747;-65
2022/05/08 00:04:38;;;;;;;25.17;8.52;;;;;;;;;;5000222;28;20043;-65
2022/05/08 00:07:03;;;;;;;26.63;9.05;;;;;;;;;;5018027;28;20029;-66
2022/05/08 00:09:28;;;;;;;28.42;8.90;;;;;;;;;;5001362;28;20716;-66
2022/05/08 00:11:54;;;;;;;28.90;9.23;;;;;;;;;;5001341;28;20034;-65
2022/05/08 00:14:19;;;;;;;34.05;9.20;;;;;;;;;;5001693;28;20040;-65
2022/05/08 00:16:46;;;;;;;30.75;9.05;;;;;;;;;;5001182;28;20186;-65
2022/05/08 00:19:11;;;;;;;26.10;9.20;;;;;;;;;;4998909;28;20040;-65
2022/05/08 00:21:38;;;;;;;23.75;8.68;;;;;;;;;;5001497;28;20033;-65
2022/05/08 00:24:06;;;;;;;30.23;9.32;;;;;;;;;;5001365;28;20063;-66
2022/05/08 00:26:34;;;;;;;30.73;9.15;;;;;;;;;;5001169;28;20040;-65
2022/05/08 00:28:59;;;;;;;33.25;9.45;;;;;;;;;;5001033;28;20028;-66
2022/05/08 00:31:25;;;;;;;30.63;9.23;;;;;;;;;;5004272;28;20036;-65
2022/05/08 00:33:51;;;;;;;33.10;9.23;;;;;;;;;;4998750;28;20140;-65
2022/05/08 00:36:19;;;;;;;32.95;9.05;;;;;;;;;;5001408;28;20068;-66
2022/05/08 00:38:46;;;;;;;29.65;9.48;;;;;;;;;;5002549;28;20673;-65
2022/05/08 00:41:11;;;;;;;30.27;9.55;;;;;;;;;;5000455;28;20080;-66
2022/05/08 00:43:40;;;;;;;33.50;9.90;;;;;;;;;;4999618;28;20752;-65
2022/05/08 00:46:06;;;;;;;23.85;8.88;;;;;;;;;;5001710;28;20859;-65
2022/05/08 00:48:32;;;;;;;20.63;8.82;;;;;;;;;;5001715;28;20055;-65
2022/05/08 00:50:59;;;;;;;30.60;9.02;;;;;;;;;;5001006;28;20123;-65
2022/05/08 00:53:27;;;;;;;31.45;8.80;;;;;;;;;;5003241;28;20109;-65
2022/05/08 00:55:55;;;;;;;38.15;9.25;;;;;;;;;;4999219;28;20125;-66
2022/05/08 00:58:25;;;;;;;29.63;9.30;;;;;;;;;;5002860;28;20103;-66
2022/05/08 01:00:50;;;;;;;28.73;9.00;;;;;;;;;;4999522;28;20037;-64
2022/05/08 01:03:18;;;;;;;32.53;9.10;;;;;;;;;;4999972;28;20720;-66
2022/05/08 01:05:44;;;;;;;33.72;10.07;;;;;;;;;;5001032;28;20079;-65
2022/05/08 01:08:09;;;;;;;32.10;8.85;;;;;;;;;;5001513;28;20051;-65
2022/05/08 01:10:38;;;;;;;27.88;9.27;;;;;;;;;;5003399;28;20041;-65
2022/05/08 01:13:04;;;;;;;35.72;9.00;;;;;;;;;;4998740;28;21472;-65
2022/05/08 01:15:39;;;;;;;32.75;9.80;;;;;;;;;;5002927;28;20041;-65
2022/05/08 01:18:06;;;;;;;34.08;10.25;;;;;;;;;;5002106;28;20160;-65
2022/05/08 01:20:32;;;;;;;26.33;9.10;;;;;;;;;;4999734;28;20842;-63
2022/05/08 01:22:57;;;;;;;30.30;8.98;;;;;;;;;;5014664;28;20045;-63
2022/05/08 01:25:22;;;;;;;26.63;9.10;;;;;;;;;;5002150;28;20041;-65
2022/05/08 01:27:50;;;;;;;32.75;9.60;;;;;;;;;;5003194;28;20040;-66
2022/05/08 01:30:17;;;;;;;29.23;9.43;;;;;;;;;;5002167;28;20037;-65
2022/05/08 01:32:43;;;;;;;30.85;9.13;;;;;;;;;;4998294;28;20132;-65
2022/05/08 01:35:08;;;;;;;33.60;9.98;;;;;;;;;;4990461;28;20049;-65
2022/05/08 01:37:35;;;;;;;30.02;9.73;;;;;;;;;;5002825;28;20862;-65
2022/05/08 01:40:01;;;;;;;29.60;9.13;;;;;;;;;;5002540;28;20034;-65
2022/05/08 01:42:27;;;;;;;28.42;9.85;;;;;;;;;;4989919;28;20059;-65
2022/05/08 01:44:52;;;;;;;31.65;9.10;;;;;;;;;;4995609;28;20764;-65
2022/05/08 01:50:05;;;;;;;36.90;9.50;;;;;;;;;;5001565;28;20041;-65
2022/05/08 01:52:32;;;;;;;30.10;7.70;;;;;;;;;;5001334;28;20052;-65
2022/05/08 01:54:57;;;;;;;29.02;7.97;;;;;;;;;;5000783;28;20044;-65
2022/05/08 01:57:23;;;;;;;32.25;9.10;;;;;;;;;;5002635;28;20099;-65
2022/05/08 01:59:48;;;;;;;33.88;8.95;;;;;;;;;;5002021;28;20078;-65
2022/05/08 02:02:19;;;;;;;30.70;8.43;;;;;;;;;;5001933;28;20127;-66
2022/05/08 02:04:45;;;;;;;26.33;8.48;;;;;;;;;;5000915;28;20816;-65
2022/05/08 02:07:12;;;;;;;28.13;8.55;;;;;;;;;;4998379;28;20103;-66
2022/05/08 02:09:40;;;;;;;30.35;8.95;;;;;;;;;;5001851;28;20043;-65
2022/05/08 02:12:05;;;;;;;41.42;9.60;;;;;;;;;;5010353;28;20037;-65
2022/05/08 02:14:30;;;;;;;28.10;8.75;;;;;;;;;;4999489;28;22233;-66
2022/05/08 02:16:56;;;;;;;33.67;9.60;;;;;;;;;;5009726;28;20512;-66
2022/05/08 02:19:22;;;;;;;32.72;8.32;;;;;;;;;;5003574;28;20519;-66
2022/05/08 02:21:47;;;;;;;30.50;8.73;;;;;;;;;;4999108;28;20040;-65
2022/05/08 02:24:12;;;;;;;34.15;8.77;;;;;;;;;;5003157;28;20037;-66
2022/05/08 02:26:38;;;;;;;36.45;9.48;;;;;;;;;;5003817;28;20102;-65
2022/05/08 02:29:03;;;;;;;35.72;9.40;;;;;;;;;;5002963;28;20052;-65
2022/05/08 02:31:28;;;;;;;27.60;8.57;;;;;;;;;;5007182;28;20083;-65
2022/05/08 02:33:54;;;;;;;43.75;9.38;;;;;;;;;;5014465;28;20767;-65
2022/05/08 02:36:19;;;;;;;35.53;8.68;;;;;;;;;;5001259;28;20116;-65
2022/05/08 02:38:44;;;;;;;32.38;9.55;;;;;;;;;;5004997;28;20738;-65
2022/05/08 02:41:12;;;;;;;28.92;8.05;;;;;;;;;;5003349;28;20048;-65
2022/05/08 02:43:37;;;;;;;36.25;8.57;;;;;;;;;;5006166;28;20052;-64
2022/05/08 02:46:05;;;;;;;33.70;8.90;;;;;;;;;;5001726;28;20045;-65
2022/05/08 02:48:30;;;;;;;27.65;8.18;;;;;;;;;;5003319;28;20041;-65
2022/05/08 02:50:55;;;;;;;41.97;9.32;;;;;;;;;;5003832;28;21153;-64
2022/05/08 02:53:20;;;;;;;26.73;8.32;;;;;;;;;;5004636;28;20033;-65
2022/05/08 02:58:37;;;;;;;34.03;7.80;;;;;;;;;;5001704;28;20048;-65
2022/05/08 03:01:05;;;;;;;29.13;7.47;;;;;;;;;;5001256;28;20052;-65
2022/05/08 03:03:30;;;;;;;29.20;8.35;;;;;;;;;;5002119;28;20044;-66
2022/05/08 03:05:55;;;;;;;36.42;8.45;;;;;;;;;;5002086;28;20031;-65
2022/05/08 03:08:21;;;;;;;28.92;7.63;;;;;;;;;;5001980;28;20063;-66
2022/05/08 03:13:37;;;;;;;32.72;7.88;;;;;;;;;;5001938;28;20025;-65
2022/05/08 03:16:04;;;;;;;32.47;7.90;;;;;;;;;;5000599;28;20139;-65
2022/05/08 03:18:29;;;;;;;36.47;8.32;;;;;;;;;;5002563;28;20089;-65
2022/05/08 03:20:55;;;;;;;28.17;7.00;;;;;;;;;;5014306;28;20364;-66
2022/05/08 03:23:20;;;;;;;31.38;7.10;;;;;;;;;;5001702;28;21202;-66
2022/05/08 03:25:50;;;;;;;29.55;6.88;;;;;;;;;;4990034;28;20033;-65
2022/05/08 03:28:18;;;;;;;36.00;7.13;;;;;;;;;;5002130;28;20043;-65
2022/05/08 03:30:46;;;;;;;23.48;6.72;;;;;;;;;;4999680;28;20037;-65
2022/05/08 03:33:12;;;;;;;33.40;7.60;;;;;;;;;;5002261;28;20119;-65
2022/05/08 03:35:37;;;;;;;30.90;7.30;;;;;;;;;;5001510;28;20127;-67
2022/05/08 03:38:03;;;;;;;29.58;6.63;;;;;;;;;;5002217;28;20144;-65
2022/05/08 03:40:29;;;;;;;38.75;6.65;;;;;;;;;;4999956;28;20064;-66
2022/05/08 03:42:54;;;;;;;29.10;6.82;;;;;;;;;;4982806;28;20821;-66
2022/05/08 03:45:22;;;;;;;32.83;7.40;;;;;;;;;;4999466;28;20112;-65
2022/05/08 03:47:53;;;;;;;32.90;7.32;;;;;;;;;;5001107;28;20063;-65
2022/05/08 03:50:21;;;;;;;39.90;7.20;;;;;;;;;;4999148;28;20175;-65
2022/05/08 03:52:47;;;;;;;28.55;6.13;;;;;;;;;;4984178;28;20041;-65
2022/05/08 03:55:15;;;;;;;30.90;7.07;;;;;;;;;;4999796;28;20037;-65
2022/05/08 03:57:41;;;;;;;32.22;8.73;;;;;;;;;;5001807;28;20827;-65
2022/05/08 04:00:09;;;;;;;28.27;6.70;;;;;;;;;;5014896;28;20938;-65
2022/05/08 04:02:34;;;;;;;33.72;7.38;;;;;;;;;;4998311;28;20033;-65
2022/05/08 04:05:02;;;;;;;34.42;8.38;;;;;;;;;;5007128;28;20041;-65
2022/05/08 04:07:29;;;;;;;38.15;8.82;;;;;;;;;;5000054;28;20116;-65
2022/05/08 04:09:54;;;;;;;40.22;7.43;;;;;;;;;;5001242;28;20047;-66
2022/05/08 04:12:19;;;;;;;44.72;7.72;;;;;;;;;;5001079;28;20033;-63
2022/05/08 04:14:45;;;;;;;33.22;6.55;;;;;;;;;;5001108;28;20037;-63
2022/05/08 04:17:10;;;;;;;35.63;7.50;;;;;;;;;;4999763;28;20133;-63
2022/05/08 04:19:35;;;;;;;35.35;7.55;;;;;;;;;;4998962;28;20228;-64
2022/05/08 04:24:45;;;;;;;37.20;6.97;;;;;;;;;;4980810;28;20144;-64
2022/05/08 04:27:10;;;;;;;32.05;7.03;;;;;;;;;;4996119;28;20167;-64
2022/05/08 04:29:37;;;;;;;32.15;7.60;;;;;;;;;;4995995;28;20044;-64
2022/05/08 04:32:04;;;;;;;33.95;7.43;;;;;;;;;;4998533;28;20038;-65
2022/05/08 04:34:30;;;;;;;30.83;6.57;;;;;;;;;;4997894;28;20913;-65
2022/05/08 04:36:58;;;;;;;30.55;6.60;;;;;;;;;;4994641;28;20300;-65
2022/05/08 04:39:23;;;;;;;37.30;8.07;;;;;;;;;;4999048;28;20040;-65
2022/05/08 04:41:48;;;;;;;35.10;6.78;;;;;;;;;;4994822;28;20077;-65
2022/05/08 04:44:13;;;;;;;31.55;7.13;;;;;;;;;;4999672;28;20048;-65
2022/05/08 04:46:39;;;;;;;26.00;6.80;;;;;;;;;;4998321;28;20041;-65
2022/05/08 04:49:04;;;;;;;33.50;6.82;;;;;;;;;;5001380;28;20050;-65
2022/05/08 04:51:30;;;;;;;29.40;6.95;;;;;;;;;;4999586;28;20124;-65
2022/05/08 04:53:55;;;;;;;31.88;6.90;;;;;;;;;;5000236;28;20072;-65
2022/05/08 04:56:21;;;;;;;31.52;6.88;;;;;;;;;;4996068;28;20116;-65
2022/05/08 04:58:46;;;;;;;30.45;7.15;;;;;;;;;;4996372;28;20637;-65
2022/05/08 05:01:12;;;;;;;33.35;6.88;;;;;;;;;;4997856;28;20673;-65
2022/05/08 05:03:38;;;;;;;30.00;7.20;;;;;;;;;;4999534;28;20039;-64
2022/05/08 05:06:03;;;;;;;34.38;6.75;;;;;;;;;;4998283;28;20033;-63
2022/05/08 05:08:29;;;;;;;31.48;7.18;;;;;;;;;;4997153;28;20950;-64
2022/05/08 05:10:54;;;;;;;31.17;6.68;;;;;;;;;;4996247;28;20048;-66
2022/05/08 05:13:19;;;;;;;33.60;8.18;;;;;;;;;;5001104;28;20126;-67
2022/05/08 05:15:44;;;;;;;26.17;6.95;;;;;;;;;;5000242;28;20048;-66
2022/05/08 05:18:10;;;;;;;32.38;7.25;;;;;;;;;;5000475;28;20053;-66
2022/05/08 05:20:36;;;;;;;28.88;6.60;;;;;;;;;;4999971;28;20580;-66
2022/05/08 05:23:01;;;;;;;33.90;6.63;;;;;;;;;;5000324;28;20045;-66
2022/05/08 05:25:27;;;;;;;27.20;6.60;;;;;;;;;;5000147;28;20128;-66
2022/05/08 05:27:53;;;;;;;25.77;6.63;;;;;;;;;;5000093;28;20053;-67
2022/05/08 05:30:18;;;;;;;28.08;6.75;;;;;;;;;;5000816;28;21033;-67
2022/05/08 05:32:43;;;;;;;23.58;6.47;;;;;;;;;;5001910;28;20044;-67
2022/05/08 05:35:09;;;;;;;28.73;6.40;;;;;;;;;;5001960;28;20158;-66
2022/05/08 05:37:34;;;;;;;25.48;6.15;;;;;;;;;;5001700;28;20052;-67
2022/05/08 05:40:00;;;;;;;29.30;6.60;;;;;;;;;;5000637;28;20097;-66
2022/05/08 05:42:25;;;;;;;24.98;6.40;;;;;;;;;;5001125;28;20834;-67
2022/05/08 05:44:50;;;;;;;27.58;6.68;;;;;;;;;;4996756;28;20269;-67
2022/05/08 05:50:00;;;;;;;20.65;6.45;;;;;;;;;;5001085;28;20103;-66
2022/05/08 05:52:25;;;;;;;24.90;6.45;;;;;;;;;;5001194;28;20642;-67
2022/05/08 05:54:51;;;;;;;21.38;5.20;;;;;;;;;;4995829;28;20302;-65
2022/05/08 05:57:16;;;;;;;24.15;6.00;;;;;;;;;;4996483;28;20696;-66
2022/05/08 05:59:41;;;;;;;26.17;5.90;;;;;;;;;;4992809;28;20518;-64
2022/05/08 06:02:07;;;;;;;26.33;5.80;;;;;;;;;;4996083;28;21932;-66
2022/05/08 06:04:32;;;;;;;23.38;5.90;;;;;;;;;;4996031;28;20036;-67
2022/05/08 06:06:57;;;;;;;18.90;5.15;;;;;;;;;;4996402;28;20029;-66
2022/05/08 06:09:23;;;;;;;20.45;5.30;;;;;;;;;;4995675;28;20136;-67
2022/05/08 06:11:52;;;;;;;20.63;5.68;;;;;;;;;;4996964;28;20566;-67
2022/05/08 06:14:17;;;;;;;23.38;5.20;;;;;;;;;;4992040;28;20154;-67
2022/05/08 06:16:43;;;;;;;23.17;4.65;;;;;;;;;;4998227;28;20386;-66
2022/05/08 06:19:09;;;;;;;19.13;4.88;;;;;;;;;;4993263;28;20037;-67
2022/05/08 06:21:34;;;;;;;19.17;4.28;;;;;;;;;;4996666;28;20128;-67
2022/05/08 06:24:02;;;;;;;25.10;4.60;;;;;;;;;;4996653;28;20118;-65
2022/05/08 06:26:28;;;;;;;15.68;3.80;;;;;;;;;;4998061;28;20029;-67
2022/05/08 06:28:55;;;;;;;16.02;3.80;;;;;;;;;;4997036;28;20037;-68
2022/05/08 06:31:22;;;;;;;16.75;3.40;;;;;;;;;;4996159;28;20033;-68
2022/05/08 06:33:49;;;;;;;13.48;3.40;;;;;;;;;;4996612;28;20092;-68
2022/05/08 06:36:14;;;;;;;16.20;3.63;;;;;;;;;;4992500;28;20281;-67
2022/05/08 06:38:39;;;;;;;12.32;3.08;;;;;;;;;;4996181;28;20777;-66
2022/05/08 06:41:05;;;;;;;12.50;2.97;;;;;;;;;;4995665;28;20044;-67
2022/05/08 06:43:30;;;;;;;14.43;3.60;;;;;;;;;;4996279;28;20048;-68
2022/05/08 06:45:56;;;;;;;18.48;3.42;;;;;;;;;;4995182;28;20041;-68
2022/05/08 06:48:21;;;;;;;12.75;3.28;;;;;;;;;;4995890;28;20261;-68
2022/05/08 06:50:47;;;;;;;14.23;3.50;;;;;;;;;;4991092;28;20710;-67
2022/05/08 06:53:15;;;;;;;11.40;3.25;;;;;;;;;;4994375;28;20141;-69
2022/05/08 06:55:41;;;;;;;12.77;2.70;;;;;;;;;;4994450;28;20365;-68
2022/05/08 06:58:08;;;;;;;12.50;2.95;;;;;;;;;;5007446;28;20818;-67
2022/05/08 07:03:20;;;;;;;11.82;2.83;;;;;;;;;;4993757;28;20037;-68
2022/05/08 07:05:47;;;;;;;17.25;2.92;;;;;;;;;;4994210;28;20041;-67
2022/05/08 07:08:12;;;;;;;9.20;2.55;;;;;;;;;;4995087;28;20296;-67
2022/05/08 07:10:38;;;;;;;10.13;2.47;;;;;;;;;;4993518;28;20560;-71
2022/05/08 07:13:03;;;;;;;12.32;2.60;;;;;;;;;;4999030;28;20233;-71
2022/05/08 07:15:31;;;;;;;13.13;2.78;;;;;;;;;;4997456;28;20120;-71
2022/05/08 07:17:56;;;;;;;12.23;2.85;;;;;;;;;;4998675;28;20048;-70
2022/05/08 07:20:24;;;;;;;12.90;2.80;;;;;;;;;;4999507;28;20048;-74
2022/05/08 07:22:49;;;;;;;9.57;2.30;;;;;;;;;;4998882;28;20148;-69
2022/05/08 07:25:14;;;;;;;12.23;2.50;;;;;;;;;;5000695;28;20053;-70
2022/05/08 07:27:40;;;;;;;10.13;2.30;;;;;;;;;;4979992;28;20625;-69
2022/05/08 07:30:06;;;;;;;8.38;2.45;;;;;;;;;;5000005;28;20029;-69
2022/05/08 07:32:31;;;;;;;10.77;2.28;;;;;;;;;;4998768;28;20777;-72
2022/05/08 07:37:43;;;;;;;8.00;2.15;;;;;;;;;;4998592;28;20408;-74
2022/05/08 07:40:09;;;;;;;12.93;2.30;;;;;;;;;;4999487;28;20048;-71
2022/05/08 07:42:34;;;;;;;9.90;2.13;;;;;;;;;;4996625;28;20332;-69
2022/05/08 07:44:59;;;;;;;10.30;2.00;;;;;;;;;;4995631;28;20064;-70
2022/05/08 07:47:25;;;;;;;18.42;2.65;;;;;;;;;;4995847;28;20730;-75
2022/05/08 07:49:50;;;;;;;11.07;2.08;;;;;;;;;;4999864;28;20377;-71
2022/05/08 07:52:15;;;;;;;13.55;2.75;;;;;;;;;;4999154;28;20577;-73
2022/05/08 07:54:40;;;;;;;7.55;2.33;;;;;;;;;;5000087;28;20039;-71
2022/05/08 07:57:06;;;;;;;9.80;2.20;;;;;;;;;;4997614;28;20585;-73
2022/05/08 07:59:31;;;;;;;11.45;2.30;;;;;;;;;;4988204;28;20034;-70
2022/05/08 08:01:56;;;;;;;9.45;2.00;;;;;;;;;;4996920;28;20521;-71
2022/05/08 08:04:21;;;;;;;12.82;2.25;;;;;;;;;;4997520;28;20260;-70
2022/05/08 08:06:47;;;;;;;13.48;2.20;;;;;;;;;;4996786;28;20029;-71
2022/05/08 08:09:15;;;;;;;9.20;2.17;;;;;;;;;;5001527;28;20902;-72
2022/05/08 08:11:43;;;;;;;8.68;2.20;;;;;;;;;;5003560;28;20276;-70
2022/05/08 08:14:08;;;;;;;6.38;2.20;;;;;;;;;;4988418;28;21041;-71
2022/05/08 08:16:33;;;;;;;11.43;2.42;;;;;;;;;;5001037;28;20044;-74
2022/05/08 08:19:02;;;;;;;9.02;2.33;;;;;;;;;;5003230;28;20045;-76
2022/05/08 08:21:27;;;;;;;7.28;1.98;;;;;;;;;;5016583;28;20948;-72
2022/05/08 08:23:52;;;;;;;8.40;1.95;;;;;;;;;;4999757;28;20049;-72
2022/05/08 08:26:18;;;;;;;10.75;2.20;;;;;;;;;;4999430;28;20314;-77
2022/05/08 08:28:43;;;;;;;9.55;2.25;;;;;;;;;;4984266;28;20040;-70
2022/05/08 08:31:09;;;;;;;8.43;2.08;;;;;;;;;;4991909;28;20047;-76
2022/05/08 08:33:39;;;;;;;7.15;1.75;;;;;;;;;;4998452;28;20059;-76
2022/05/08 08:36:07;;;;;;;8.93;2.28;;;;;;;;;;5000416;28;20037;-73
2022/05/08 08:38:32;;;;;;;6.72;2.20;;;;;;;;;;4999265;28;20048;-71
2022/05/08 08:41:02;;;;;;;6.68;1.80;;;;;;;;;;5002856;28;20033;-73
2022/05/08 08:43:27;;;;;;;8.65;2.05;;;;;;;;;;5004955;28;20044;-73
2022/05/08 08:48:40;;;;;;;6.97;1.70;;;;;;;;;;5000196;28;20608;-72
2022/05/08 08:51:05;;;;;;;10.43;2.15;;;;;;;;;;4997023;28;20044;-71
2022/05/08 08:53:36;;;;;;;4.63;1.67;;;;;;;;;;4993247;28;20033;-74
2022/05/08 08:56:02;;;;;;;5.78;1.50;;;;;;;;;;5007982;28;20888;-71
2022/05/08 08:58:30;;;;;;;6.90;1.83;;;;;;;;;;4991680;28;20476;-68
2022/05/08 09:00:55;;;;;;;6.90;1.45;;;;;;;;;;4997170;28;20120;-71
2022/05/08 09:03:27;;;;;;;10.32;2.00;;;;;;;;;;5000310;28;20124;-70
2022/05/08 09:06:02;;;;;;;6.28;1.90;;;;;;;;;;5000874;28;20037;-68
2022/05/08 09:08:29;;;;;;;6.07;1.73;;;;;;;;;;5011257;28;20033;-70
2022/05/08 09:10:56;;;;;;;6.88;2.03;;;;;;;;;;5000510;28;20049;-70
2022/05/08 09:13:27;;;;;;;7.68;2.05;;;;;;;;;;4998752;28;20119;-71
2022/05/08 09:16:06;;;;;;;7.50;1.73;;;;;;;;;;5001481;28;20148;-72
2022/05/08 09:18:44;;;;;;;6.22;1.75;;;;;;;;;;5001361;28;20060;-67
2022/05/08 09:24:11;;;;;;;8.05;1.80;;;;;;;;;;5001388;28;20029;-66
2022/05/08 09:26:37;;;;;;;8.40;1.92;;;;;;;;;;5001066;28;20083;-70
2022/05/08 09:29:03;;;;;;;8.13;1.80;;;;;;;;;;5001278;28;20510;-71
2022/05/08 09:31:36;;;;;;;8.15;2.00;;;;;;;;;;4998979;28;20081;-71
2022/05/08 09:34:02;;;;;;;8.73;1.92;;;;;;;;;;5000470;28;20067;-70
2022/05/08 09:36:27;;;;;;;8.27;2.05;;;;;;;;;;5001851;28;20037;-70
2022/05/08 09:38:54;;;;;;;7.25;1.75;;;;;;;;;;4996347;28;20036;-71
2022/05/08 09:41:24;;;;;;;5.47;1.70;;;;;;;;;;5002878;28;20060;-73
2022/05/08 09:43:52;;;;;;;5.13;1.63;;;;;;;;;;5013994;28;20041;-74
2022/05/08 09:46:20;;;;;;;7.95;1.80;;;;;;;;;;5001575;28;20124;-74
2022/05/08 09:48:46;;;;;;;9.80;3.45;;;;;;;;;;4999389;28;20033;-72
2022/05/08 09:51:17;;;;;;;14.65;5.70;;;;;;;;;;5000796;28;20037;-72
2022/05/08 09:53:43;;;;;;;33.50;29.40;;;;;;;;;;5001663;28;20120;-71
2022/05/08 09:56:10;;;;;;;6.70;1.90;;;;;;;;;;5001154;28;20094;-73
2022/05/08 09:58:39;;;;;;;6.60;1.77;;;;;;;;;;5000221;28;22209;-71
2022/05/08 10:01:05;;;;;;;7.53;2.00;;;;;;;;;;5000119;28;20034;-73
2022/05/08 10:03:30;;;;;;;10.35;2.22;;;;;;;;;;5001556;28;20048;-73
2022/05/08 10:05:57;;;;;;;12.00;2.17;;;;;;;;;;5001176;28;20038;-72
2022/05/08 10:08:26;;;;;;;6.43;2.50;;;;;;;;;;5000675;28;20048;-72
2022/05/08 10:13:53;;;;;;;9.20;2.40;;;;;;;;;;5000446;28;20118;-70
2022/05/08 10:16:37;;;;;;;9.53;1.63;;;;;;;;;;5001164;28;21210;-71
2022/05/08 10:19:18;;;;;;;6.32;1.80;;;;;;;;;;5000308;28;20041;-72
2022/05/08 10:21:55;;;;;;;7.80;2.20;;;;;;;;;;5001068;28;20037;-69
2022/05/08 10:24:33;;;;;;;7.25;1.90;;;;;;;;;;4998563;28;20151;-69
2022/05/08 10:27:07;;;;;;;8.15;2.00;;;;;;;;;;4992181;28;20040;-70
2022/05/08 10:29:35;;;;;;;8.98;1.90;;;;;;;;;;4994612;28;21012;-71
2022/05/08 10:32:01;;;;;;;7.47;2.00;;;;;;;;;;4998243;28;20033;-71
2022/05/08 10:34:34;;;;;;;6.60;1.83;;;;;;;;;;5001134;28;20041;-73
2022/05/08 10:37:11;;;;;;;8.05;1.95;;;;;;;;;;5015601;28;20128;-72
2022/05/08 10:39:43;;;;;;;11.23;2.25;;;;;;;;;;5000496;28;20168;-73
2022/05/08 10:42:27;;;;;;;8.00;1.88;;;;;;;;;;4999440;28;20696;-70
2022/05/08 10:44:53;;;;;;;9.05;2.10;;;;;;;;;;4999975;28;20645;-77
2022/05/08 10:47:33;;;;;;;10.13;1.77;;;;;;;;;;5002829;28;20122;-68
2022/05/08 10:49:59;;;;;;;8.50;2.03;;;;;;;;;;5004278;28;20196;-69
2022/05/08 10:52:25;;;;;;;9.75;1.95;;;;;;;;;;5001848;28;20041;-69
2022/05/08 10:54:57;;;;;;;11.55;2.28;;;;;;;;;;5003010;28;20107;-67
2022/05/08 10:57:29;;;;;;;8.95;2.03;;;;;;;;;;5003693;28;20052;-70
2022/05/08 10:59:54;;;;;;;;;;;;;;;;;;5006061;28;22206;-70
2022/05/08 11:02:38;;;;;;;9.90;2.30;;;;;;;;;;5004500;28;19952;-68
2022/05/08 11:05:03;;;;;;;8.27;1.98;;;;;;;;;;4997151;28;20669;-70
2022/05/08 11:07:28;;;;;;;22.63;14.30;;;;;;;;;;4998450;28;20048;-68
2022/05/08 11:09:54;;;;;;;23.48;14.38;;;;;;;;;;5002258;28;20034;-76
2022/05/08 11:12:19;;;;;;;7.40;1.85;;;;;;;;;;4999954;28;20770;-75
2022/05/08 11:14:45;;;;;;;8.40;1.98;;;;;;;;;;5002441;28;20255;-72
2022/05/08 11:17:15;;;;;;;12.80;4.10;;;;;;;;;;5002670;28;20060;-72
2022/05/08 11:19:50;;;;;;;11.32;2.08;;;;;;;;;;4997717;28;20137;-73
2022/05/08 11:22:15;;;;;;;10.07;4.18;;;;;;;;;;5003860;28;20040;-73
2022/05/08 11:24:42;;;;;;;6.10;1.60;;;;;;;;;;5003922;28;20035;-73
2022/05/08 11:27:12;;;;;;;7.97;2.58;;;;;;;;;;5012554;28;20038;-75
2022/05/08 11:29:38;;;;;;;9.60;2.90;;;;;;;;;;5004069;28;20045;-74
2022/05/08 11:38:03;;;;;;;7.90;2.10;;;;;;;;;;5003442;28;20045;-70
2022/05/08 11:40:28;;;;;;;8.55;1.98;;;;;;;;;;5006458;28;20596;-70
2022/05/08 11:42:54;;;;;;;6.60;1.90;;;;;;;;;;5001411;28;20032;-70
2022/05/08 11:45:20;;;;;;;9.18;1.77;;;;;;;;;;4994626;28;20034;-69
2022/05/08 11:47:49;;;;;;;9.13;2.10;;;;;;;;;;4999791;28;21068;-70
2022/05/08 11:50:14;;;;;;;9.30;2.08;;;;;;;;;;5002681;28;20045;-70
2022/05/08 11:52:39;;;;;;;7.22;2.45;;;;;;;;;;5000433;28;20044;-72
2022/05/08 11:55:05;;;;;;;7.82;2.00;;;;;;;;;;5000663;28;20836;-73
2022/05/08 11:57:39;;;;;;;8.90;1.98;;;;;;;;;;5001048;28;20110;-74
2022/05/08 12:00:05;;;;;;;8.15;1.80;;;;;;;;;;5004016;28;20087;-74
2022/05/08 12:02:38;;;;;;;7.88;2.00;;;;;;;;;;5001140;28;20026;-73
2022/05/08 12:05:04;;;;;;;6.57;1.90;;;;;;;;;;4998740;28;20033;-71
2022/05/08 12:07:40;;;;;;;6.78;1.75;;;;;;;;;;5000731;28;20352;-71
2022/05/08 12:10:06;;;;;;;7.55;1.92;;;;;;;;;;5001366;28;20032;-72
2022/05/08 12:12:33;;;;;;;6.13;1.65;;;;;;;;;;5003115;28;20502;-75
2022/05/08 12:14:59;;;;;;;7.72;1.73;;;;;;;;;;4999834;28;20033;-65
2022/05/08 12:17:27;;;;;;;9.75;2.20;;;;;;;;;;4998953;28;20843;-68
2022/05/08 12:19:54;;;;;;;6.53;1.80;;;;;;;;;;5000238;28;20041;-75
2022/05/08 12:22:24;;;;;;;5.57;1.67;;;;;;;;;;5004255;28;20032;-77
2022/05/08 12:24:55;;;;;;;6.00;1.60;;;;;;;;;;5003801;28;21094;-74
2022/05/08 12:27:21;;;;;;;4.88;1.70;;;;;;;;;;5000143;28;20863;-73
2022/05/08 12:29:46;;;;;;;5.82;1.80;;;;;;;;;;5004862;28;20112;-73
2022/05/08 12:32:13;;;;;;;7.78;1.65;;;;;;;;;;5001812;28;20106;-75
2022/05/08 12:34:41;;;;;;;8.55;1.65;;;;;;;;;;5002980;28;20053;-78
2022/05/08 12:37:07;;;;;;;7.90;1.73;;;;;;;;;;4998979;28;20029;-76
2022/05/08 12:39:36;;;;;;;8.05;1.77;;;;;;;;;;5003796;28;20026;-76
2022/05/08 12:42:01;;;;;;;6.03;1.70;;;;;;;;;;5001204;28;20040;-71
2022/05/08 12:44:26;;;;;;;6.15;1.58;;;;;;;;;;5012236;28;20025;-69
2022/05/08 12:46:52;;;;;;;5.90;1.52;;;;;;;;;;5000420;28;20033;-68
2022/05/08 12:49:17;;;;;;;11.25;2.08;;;;;;;;;;5000752;28;20047;-69
2022/05/08 12:51:45;;;;;;;6.72;1.73;;;;;;;;;;4998634;28;20736;-67
2022/05/08 12:54:12;;;;;;;7.55;2.08;;;;;;;;;;4999963;28;20721;-69
2022/05/08 12:56:37;;;;;;;7.00;2.05;;;;;;;;;;4997417;28;21959;-70
2022/05/08 13:01:49;;;;;;;11.98;2.17;;;;;;;;;;4994704;28;20034;-68
2022/05/08 13:04:14;;;;;;;4.60;1.80;;;;;;;;;;4994909;28;21400;-66
2022/05/08 13:06:42;;;;;;;9.07;1.92;;;;;;;;;;4997224;28;20061;-71
2022/05/08 13:09:08;;;;;;;7.47;2.08;;;;;;;;;;4996995;28;20125;-66
2022/05/08 13:11:34;;;;;;;6.47;1.70;;;;;;;;;;5000936;28;20041;-67
2022/05/08 13:14:01;;;;;;;10.05;1.92;;;;;;;;;;5000716;28;20033;-68
2022/05/08 13:16:27;;;;;;;9.43;1.92;;;;;;;;;;4997684;28;20075;-69
2022/05/08 13:18:52;;;;;;;7.30;2.00;;;;;;;;;;4995939;28;20045;-71
2022/05/08 13:21:18;;;;;;;8.30;1.70;;;;;;;;;;4998019;28;20029;-71
2022/05/08 13:23:44;;;;;;;7.28;1.98;;;;;;;;;;5000998;28;20053;-69
2022/05/08 13:26:12;;;;;;;7.75;1.80;;;;;;;;;;5000311;28;20033;-70
2022/05/08 13:28:40;;;;;;;7.82;2.00;;;;;;;;;;4994954;28;20437;-68
2022/05/08 13:31:05;;;;;;;12.55;3.63;;;;;;;;;;4997129;28;20090;-71
2022/05/08 13:33:31;;;;;;;18.23;3.72;;;;;;;;;;4996910;28;20025;-76
2022/05/08 13:36:02;;;;;;;9.90;3.80;;;;;;;;;;4994907;28;20355;-71
2022/05/08 13:38:28;;;;;;;10.32;2.42;;;;;;;;;;4996660;28;20414;-68
2022/05/08 13:40:56;;;;;;;9.68;2.85;;;;;;;;;;4994716;28;20044;-64
2022/05/08 13:43:21;;;;;;;7.03;2.17;;;;;;;;;;4995837;28;20569;-67
2022/05/08 13:45:47;;;;;;;8.68;2.05;;;;;;;;;;4981263;28;21813;-69
2022/05/08 13:48:12;;;;;;;10.70;2.72;;;;;;;;;;4996136;28;20191;-68
2022/05/08 13:50:41;;;;;;;7.85;2.58;;;;;;;;;;4992215;28;20041;-66
2022/05/08 13:53:10;;;;;;;9.23;2.30;;;;;;;;;;4996445;28;20160;-66
2022/05/08 13:55:38;;;;;;;8.25;2.22;;;;;;;;;;4995579;28;20545;-65
2022/05/08 13:58:04;;;;;;;6.85;1.60;;;;;;;;;;4995566;28;20142;-67
2022/05/08 14:00:30;;;;;;;13.13;3.47;;;;;;;;;;4994056;28;20033;-65
2022/05/08 14:02:55;;;;;;;12.20;2.53;;;;;;;;;;4992783;28;20041;-65
2022/05/08 14:05:20;;;;;;;19.42;7.38;;;;;;;;;;4993075;28;20705;-65
2022/05/08 14:07:46;;;;;;;12.48;2.45;;;;;;;;;;4994275;28;21085;-66
2022/05/08 14:10:11;;;;;;;17.98;2.90;;;;;;;;;;4994493;28;20547;-67
2022/05/08 14:12:40;;;;;;;14.48;3.67;;;;;;;;;;4996014;28;20158;-66
2022/05/08 14:15:06;;;;;;;10.38;2.53;;;;;;;;;;4997784;28;20037;-62
2022/05/08 14:17:31;;;;;;;21.77;3.55;;;;;;;;;;4999215;28;20033;-64
2022/05/08 14:20:04;;;;;;;22.08;3.38;;;;;;;;;;4998498;28;20056;-64
2022/05/08 14:22:30;;;;;;;11.80;2.42;;;;;;;;;;5003727;28;21215;-65
2022/05/08 14:24:56;;;;;;;33.72;4.25;;;;;;;;;;5003282;28;20037;-65
2022/05/08 14:27:24;;;;;;;34.67;3.75;;;;;;;;;;5001179;28;20044;-68
2022/05/08 14:29:52;;;;;;;17.17;2.90;;;;;;;;;;4999049;28;20140;-64
2022/05/08 14:37:46;;;;;;;43.78;4.60;;;;;;;;;;5001727;28;20037;-67
2022/05/08 14:40:11;;;;;;;19.15;3.28;;;;;;;;;;4996626;28;20048;-63
2022/05/08 14:42:37;;;;;;;30.08;3.80;;;;;;;;;;5002265;28;20572;-64
2022/05/08 14:45:03;;;;;;;21.35;3.47;;;;;;;;;;5000517;28;20124;-64
2022/05/08 14:47:29;;;;;;;33.22;3.35;;;;;;;;;;5000272;28;20088;-66
2022/05/08 14:49:54;;;;;;;26.70;9.90;;;;;;;;;;4999239;28;20140;-63
2022/05/08 14:52:20;;;;;;;21.95;3.55;;;;;;;;;;4996585;28;20449;-65
2022/05/08 14:54:45;;;;;;;17.25;3.08;;;;;;;;;;5001536;28;22198;-63
2022/05/08 14:57:11;;;;;;;25.83;3.72;;;;;;;;;;4998857;28;20037;-65
2022/05/08 14:59:36;;;;;;;32.75;5.65;;;;;;;;;;4997788;28;20539;-62
2022/05/08 15:02:02;;;;;;;23.75;3.38;;;;;;;;;;4996999;28;20385;-64
2022/05/08 15:04:27;;;;;;;22.52;2.80;;;;;;;;;;4997898;28;20037;-74
2022/05/08 15:06:52;;;;;;;24.45;3.60;;;;;;;;;;4998628;28;20270;-71
2022/05/08 15:09:18;;;;;;;20.98;3.08;;;;;;;;;;4999776;28;20068;-72
2022/05/08 15:11:46;;;;;;;14.90;2.85;;;;;;;;;;5000373;28;20155;-75
2022/05/08 15:14:11;;;;;;;21.23;3.28;;;;;;;;;;5017174;28;20187;-71